Date,TemperatureHighF,TemperatureAvgF,TemperatureLowF,DewpointHighF,DewpointAvgF,DewpointLowF,HumidityHigh,HumidityAvg,HumidityLow,PressureMaxIn,PressureMinIn,WindSpeedMaxMPH,WindSpeedAvgMPH,GustSpeedMaxMPH,PrecipitationSumIn
2013-1-1,22,17,9,14,8,3,79,67,49,0.00,40.00,10,5,15,0.00
2013-1-2,30,18,6,18,10,2,86,73,54,0.00,40.00,9,5,14,0.00
2013-1-3,31,25,14,26,19,8,90,76,58,0.00,40.00,14,7,21,0.00
2013-1-4,34,21,9,22,15,6,86,77,62,0.00,40.00,16,7,20,0.00
2013-1-5,37,30,19,35,26,17,94,87,69,0.00,40.00,14,6,19,0.00
2013-1-6,36,26,19,32,20,14,88,77,61,0.00,40.00,16,8,23,0.00
2013-1-7,41,28,16,28,22,14,91,77,50,0.00,40.00,14,8,20,0.00
2013-1-8,47,34,26,32,27,23,90,77,48,0.00,40.00,15,7,19,0.00
2013-1-9,49,39,31,34,29,25,91,69,43,0.00,40.00,11,6,17,0.00
2013-1-10,46,37,29,44,31,22,96,79,51,0.00,40.00,11,6,17,0.00
2013-1-11,56,50,45,51,47,44,96,90,75,0.00,40.00,17,10,23,0.00
2013-1-12,53,40,25,46,32,20,87,74,63,0.00,40.00,13,8,18,0.00
2013-1-13,25,19,13,21,13,7,88,77,69,0.00,40.00,11,6,19,0.00
2013-1-14,27,16,10,11,8,-100,84,72,48,0.00,40.00,7,3,11,0.00
2013-1-15,32,24,14,15,13,8,80,63,44,0.00,40.00,5,2,7,0.00
2013-1-16,38,27,14,27,18,10,84,69,47,0.00,40.00,14,7,20,0.00
2013-1-17,35,30,23,30,20,11,91,68,43,0.00,40.00,11,6,17,0.00
2013-1-18,47,34,21,29,23,16,83,66,49,0.00,40.00,15,8,26,0.00
2013-1-19,51,43,31,37,31,19,75,63,56,0.00,40.00,20,10,29,0.00
2013-1-20,31,19,14,20,8,5,78,64,51,0.00,40.00,19,8,28,0.00
2013-1-21,15,9,5,9,0,-5,76,65,50,0.00,40.00,17,10,24,0.00
2013-1-22,15,8,1,2,-2,-7,73,61,49,0.00,40.00,10,6,15,0.00
2013-1-23,33,21,13,16,8,2,63,57,47,0.00,40.00,14,7,24,0.00
2013-1-24,22,16,6,8,3,-3,73,57,44,0.00,40.00,11,7,18,0.00
2013-1-25,37,27,19,19,14,7,69,57,45,0.00,40.00,16,8,21,0.00
2013-1-26,34,22,10,15,9,4,76,59,40,0.00,40.00,9,4,11,0.00
2013-1-27,30,28,27,20,17,15,64,62,58,0.00,40.00,12,8,15,0.00
2013-1-28,55,50,47,54,49,46,96,96,96,0.00,40.00,14,5,19,0.00
2013-1-29,65,56,45,59,55,40,96,94,80,0.00,40.00,15,8,26,0.00
2013-1-30,45,31,18,44,28,10,95,86,68,0.00,40.00,21,10,30,0.00
2013-1-31,16,11,4,8,1,-5,73,64,58,0.00,40.00,18,13,26,0.00
2013-2-1,20,10,1,15,-1,-7,81,61,53,0.00,40.00,13,8,24,0.00
2013-2-2,27,22,17,23,15,6,88,74,60,0.00,40.00,11,6,16,0.00
2013-2-3,29,23,17,21,14,10,92,70,51,0.00,40.00,14,6,20,0.00
2013-2-4,36,27,19,23,19,14,84,72,58,0.00,40.00,14,7,19,0.00
2013-2-5,40,29,18,28,23,15,89,78,62,0.00,40.00,13,6,19,0.00
2013-2-6,46,36,26,30,27,23,93,72,50,0.00,40.00,14,6,19,0.00
2013-2-7,37,36,34,36,34,30,95,92,79,0.00,40.00,12,6,16,0.00
2013-2-8,34,29,26,32,23,20,91,78,72,0.00,40.00,14,6,21,0.00
2013-2-9,37,31,26,30,25,21,84,78,68,0.00,40.00,16,10,20,0.00
2013-2-10,48,41,35,46,38,28,95,89,56,0.00,40.00,21,14,29,0.00
2013-2-11,42,34,30,29,22,20,69,63,58,0.00,40.00,27,16,37,0.00
2013-2-12,40,32,28,24,23,21,80,70,53,0.00,40.00,10,5,16,0.00
2013-2-13,45,34,24,30,27,22,90,75,54,0.00,40.00,11,5,16,0.00
2013-2-14,40,36,33,31,30,28,89,76,65,0.00,40.00,15,8,22,0.00
2013-2-15,34,28,21,31,16,9,91,62,40,0.00,40.00,14,8,17,0.00
2013-2-16,28,20,13,13,10,6,77,64,51,0.00,40.00,12,6,16,0.00
2013-2-17,38,25,13,22,15,8,80,65,47,0.00,40.00,17,8,24,0.00
2013-2-18,54,39,24,46,31,17,96,74,56,0.00,40.00,21,13,31,0.00
2013-2-19,24,18,12,18,9,4,76,66,56,0.00,40.00,21,14,32,0.00
2013-2-20,22,14,5,12,5,-3,77,66,53,0.00,40.00,11,5,18,0.00
2013-2-21,29,22,14,24,17,10,94,80,72,0.00,40.00,19,8,26,0.00
2013-2-22,32,29,26,31,25,18,96,85,71,0.00,40.00,17,8,23,0.00
2013-2-23,29,25,20,19,17,15,79,70,62,0.00,40.00,9,6,14,0.00
2013-2-24,40,28,16,25,19,13,90,70,47,0.00,40.00,7,3,9,0.00
2013-2-25,44,35,26,31,27,23,89,74,53,0.00,40.00,13,6,20,0.00
2013-2-26,36,33,31,32,30,26,96,88,69,0.00,40.00,19,12,28,0.00
2013-2-27,34,32,30,30,29,28,95,91,81,0.00,40.00,11,7,15,0.00
2013-2-28,38,33,31,31,29,27,94,85,64,0.00,40.00,9,6,15,0.00
2013-3-1,31,28,24,30,21,18,94,78,65,0.00,40.00,11,7,15,0.00
2013-3-2,31,24,15,18,13,8,77,63,45,0.00,40.00,9,6,14,0.00
2013-3-3,36,22,10,16,11,8,90,64,38,0.00,40.00,5,2,6,0.00
2013-3-4,36,31,25,28,22,12,89,70,56,0.00,40.00,14,9,21,0.00
2013-3-5,34,31,27,31,28,24,95,88,79,0.00,40.00,16,8,23,0.00
2013-3-6,31,27,22,24,20,18,88,76,65,0.00,40.00,11,7,17,0.00
2013-3-7,39,30,25,24,22,20,84,72,53,0.00,40.00,8,3,9,0.00
2013-3-8,45,35,24,32,27,22,91,74,58,0.00,40.00,12,7,16,0.00
2013-3-9,49,41,36,40,35,30,95,81,68,0.00,40.00,14,10,21,0.00
2013-3-10,51,47,44,50,45,39,95,93,73,0.00,40.00,15,6,19,0.00
2013-3-11,45,36,30,43,33,23,95,89,75,0.00,40.00,16,10,26,0.00
2013-3-12,37,30,26,30,23,15,88,75,62,0.00,40.00,19,11,26,0.00
2013-3-13,36,28,22,19,16,13,77,61,39,0.00,40.00,16,8,23,0.00
2013-3-14,46,33,24,29,24,18,85,71,48,0.00,40.00,16,5,19,0.00
2013-3-15,53,41,30,40,33,28,92,77,50,0.00,40.00,8,4,11,0.00
2013-3-16,42,36,31,40,30,24,96,81,60,0.00,40.00,13,7,18,0.00
2013-3-17,38,32,28,26,24,20,83,71,60,0.00,40.00,12,8,17,0.00
2013-3-18,39,32,25,34,27,12,95,80,56,0.00,40.00,22,9,29,0.00
2013-3-19,39,28,19,14,11,7,63,50,34,0.00,40.00,19,11,26,0.00
2013-3-30,58,53,48,43,38,-100,85,62,50,0.00,40.00,16,8,23,0.00
2013-3-31,59,50,39,44,37,23,93,65,34,0.00,40.00,16,9,24,0.00
2013-4-1,42,35,28,24,19,14,80,53,34,0.00,40.00,12,7,20,0.00
2013-4-2,46,34,23,23,17,14,78,52,27,0.00,40.00,11,5,18,0.00
2013-4-3,52,38,24,21,18,15,76,47,27,0.00,40.00,9,5,14,0.00
2013-4-4,61,47,33,28,23,16,58,40,26,0.00,40.00,8,4,12,0.00
2013-4-5,60,48,34,33,29,21,85,51,28,0.00,40.00,10,6,17,0.00
2013-4-6,72,57,43,49,34,21,70,44,31,0.00,40.00,28,12,37,0.00
2013-4-7,70,56,39,47,40,38,95,61,33,0.00,40.00,11,4,16,0.00
2013-4-8,73,64,56,56,52,39,95,68,48,0.00,40.00,18,8,27,0.00
2013-4-9,78,66,55,59,56,50,91,72,48,0.00,40.00,16,7,21,0.00
2013-4-10,55,45,41,50,44,39,96,93,85,0.00,40.00,16,9,26,0.00
2013-4-11,49,44,37,45,41,30,96,87,72,0.00,40.00,17,9,23,0.00
2013-4-12,42,39,37,37,32,30,91,76,64,0.00,40.00,16,10,23,0.00
2013-4-13,51,43,35,35,29,23,79,60,43,0.00,40.00,14,8,21,0.00
2013-4-14,78,60,45,51,42,33,76,54,35,0.00,40.00,26,12,36,0.00
2013-4-15,65,55,45,55,49,40,94,81,57,0.00,40.00,24,7,34,0.00
2013-4-16,53,47,39,42,36,32,89,68,49,0.00,40.00,9,5,13,0.00
2013-4-17,58,48,44,56,42,34,95,82,64,0.00,40.00,21,9,28,0.00
2013-4-18,62,53,39,60,50,29,95,90,69,0.00,40.00,21,12,29,0.00
2013-4-19,40,38,35,30,27,23,73,66,58,0.00,40.00,19,14,30,0.00
2013-4-20,51,40,31,28,24,21,78,55,33,0.00,40.00,11,4,16,0.00
2013-4-21,60,48,37,39,32,27,68,56,45,0.00,40.00,15,10,21,0.00
2013-4-22,69,56,43,44,37,33,73,52,32,0.00,40.00,14,8,20,0.00
2013-4-23,58,45,38,50,43,36,95,91,60,0.00,40.00,11,6,16,0.00
2013-4-24,51,42,36,36,31,25,94,67,40,0.00,40.00,13,7,18,0.00
2013-4-25,56,47,39,34,29,24,81,52,35,0.00,40.00,18,8,24,0.00
2013-4-26,65,54,41,46,39,29,86,59,48,0.00,40.00,14,9,20,0.00
2013-4-27,64,54,45,51,45,40,95,74,42,0.00,40.00,11,5,15,0.00
2013-4-28,71,58,52,52,50,47,94,75,45,0.00,40.00,6,4,10,0.00
2013-4-29,79,62,47,57,51,45,95,72,44,0.00,40.00,18,9,24,0.00
2013-4-30,87,74,60,60,55,49,93,55,29,0.00,40.00,17,10,21,0.00
2013-5-1,85,74,61,57,53,49,82,51,31,0.00,40.00,14,8,19,0.00
2013-5-2,71,60,45,56,49,40,92,68,53,0.00,40.00,14,8,21,0.00
2013-5-3,59,48,43,58,46,42,95,95,91,0.00,40.00,14,8,21,0.00
2013-5-4,66,59,54,58,55,52,94,86,64,0.00,40.00,14,5,21,0.00
2013-5-5,75,61,52,57,50,42,94,72,33,0.00,40.00,11,6,16,0.00
2013-5-6,76,66,54,52,46,35,87,54,28,0.00,40.00,11,6,17,0.00
2013-5-7,83,68,52,44,40,34,63,38,23,0.00,40.00,5,3,9,0.00
2013-5-8,82,70,57,56,48,40,75,47,30,0.00,40.00,7,3,11,0.00
2013-5-9,72,64,61,62,60,55,94,86,58,0.00,40.00,15,5,24,0.00
2013-5-10,62,54,49,61,48,-100,94,86,77,0.00,40.00,11,6,16,0.00
2013-5-11,59,52,45,51,35,-100,94,60,28,0.00,40.00,18,8,28,0.00
2013-5-12,58,48,38,29,26,23,66,43,30,0.00,40.00,14,7,21,0.00
2013-5-13,71,56,40,40,33,26,75,45,26,0.00,40.00,8,4,15,0.00
2013-5-14,91,72,53,61,52,40,74,51,36,0.00,40.00,11,8,19,0.00
2013-5-15,85,76,69,58,54,47,63,48,35,0.00,40.00,14,7,21,0.00
2013-5-16,85,66,61,61,33,-100,83,54,34,0.00,40.00,9,4,13,0.00
2013-5-17,82,70,61,68,53,-100,91,70,41,0.00,40.00,9,4,19,0.00
2013-5-18,83,72,64,66,62,58,94,72,45,0.00,40.00,8,5,12,0.00
2013-5-19,91,76,63,68,64,55,93,68,44,0.00,40.00,17,8,26,0.00
2013-5-20,82,74,62,67,60,56,96,65,41,0.00,40.00,21,9,36,0.00
2013-5-21,80,71,61,63,59,56,95,70,46,0.00,40.00,15,8,21,0.00
2013-5-22,71,65,60,61,56,51,92,74,51,0.00,40.00,14,5,20,0.00
2013-5-23,65,59,51,56,51,46,95,77,52,0.00,40.00,14,7,21,0.00
2013-5-24,68,56,41,48,38,34,93,57,31,0.00,40.00,9,4,13,0.00
2013-5-25,55,51,47,50,43,37,93,76,56,0.00,40.00,11,5,18,0.00
2013-5-26,65,56,50,59,52,47,95,89,76,0.00,40.00,13,7,17,0.00
2013-5-27,70,64,58,65,61,56,95,90,78,0.00,40.00,12,6,18,0.00
2013-5-28,78,69,64,70,65,59,93,86,72,0.00,40.00,20,8,28,0.00
2013-5-29,86,74,61,68,64,58,95,73,50,0.00,40.00,15,7,26,0.00
2013-5-30,85,73,62,70,65,60,94,79,57,0.00,40.00,23,12,29,0.00
2013-5-31,75,68,63,70,64,59,94,89,73,0.00,40.00,14,7,21,0.00
2013-6-1,75,68,62,66,60,-100,94,81,53,0.00,40.00,16,8,21,0.00
2013-6-2,63,60,55,59,52,47,91,76,59,0.00,40.00,10,5,17,0.00
2013-6-3,70,60,49,51,46,40,95,63,40,0.00,40.00,6,3,12,0.00
2013-6-4,74,64,52,53,49,45,88,60,42,0.00,40.00,10,5,14,0.00
2013-6-5,78,68,57,60,55,53,89,65,44,0.00,40.00,8,3,12,0.00
2013-6-6,73,64,57,59,57,52,94,79,59,0.00,40.00,8,4,14,0.00
2013-6-7,75,64,55,53,51,49,87,64,42,0.00,40.00,9,5,14,0.00
2013-6-8,79,68,54,54,50,44,80,56,38,0.00,40.00,6,3,15,0.00
2013-6-9,80,68,62,66,59,54,94,75,50,0.00,40.00,14,6,21,0.00
2013-6-10,81,69,60,62,59,57,94,73,47,0.00,40.00,9,3,11,0.00
2013-6-11,88,75,61,71,64,58,93,70,50,0.00,40.00,10,3,14,0.00
2013-6-12,94,82,70,72,69,67,91,68,46,0.00,40.00,14,6,25,0.00
2013-6-13,83,75,66,71,56,50,93,56,33,0.00,40.00,13,7,22,0.00
2013-6-14,82,71,58,59,55,53,84,58,41,0.00,40.00,9,3,16,0.00
2013-6-15,78,71,65,70,64,57,95,79,65,0.00,40.00,24,6,39,0.00
2013-6-16,82,72,63,68,65,61,95,79,57,0.00,40.00,10,4,16,0.00
2013-6-17,86,77,66,68,63,57,94,65,39,0.00,40.00,5,3,9,0.00
2013-6-18,82,73,65,64,59,53,89,64,43,0.00,40.00,8,4,13,0.00
2013-6-19,86,72,56,61,54,48,78,56,33,0.00,40.00,7,3,11,0.00
2013-6-20,87,73,64,67,61,57,85,68,44,0.00,40.00,8,4,13,0.00
2013-6-22,88,79,69,74,69,65,88,72,60,0.00,40.00,14,6,24,0.00
2013-6-23,88,74,67,70,67,65,92,81,56,0.00,40.00,15,5,22,0.00
2013-6-24,86,71,65,72,67,64,95,87,63,0.00,40.00,11,5,20,0.00
2013-6-25,85,77,68,73,70,66,94,80,58,0.00,40.00,11,6,16,0.00
2013-6-26,87,76,66,75,70,64,94,81,59,0.00,40.00,9,4,14,0.00
2013-6-27,88,79,73,74,68,64,94,72,49,0.00,40.00,11,5,15,0.00
2013-6-28,84,74,65,67,60,55,93,65,39,0.00,40.00,14,6,20,0.00
2013-6-29,74,69,64,66,61,57,91,78,65,0.00,40.00,11,6,16,0.00
2013-6-30,80,69,61,61,58,53,93,69,46,0.00,40.00,11,6,17,0.00
2013-7-1,80,68,57,54,50,47,81,55,37,0.00,40.00,11,7,17,0.00
2013-7-2,77,67,56,55,52,48,87,61,37,0.00,40.00,10,6,15,0.00
2013-7-3,81,69,57,56,53,49,91,62,34,0.00,40.00,4,2,7,0.00
2013-7-4,86,74,62,64,60,56,90,65,40,0.00,40.00,6,4,11,0.00
2013-7-5,87,75,64,67,61,57,93,65,39,0.00,40.00,6,4,12,0.00
2013-7-6,87,75,65,68,64,61,93,72,42,0.00,40.00,8,4,11,0.00
2013-7-7,89,79,68,72,68,63,92,72,47,0.00,40.00,9,4,13,0.00
2013-7-8,87,78,72,76,71,69,94,81,61,0.00,40.00,10,5,16,0.00
2013-7-9,88,81,76,77,74,71,93,80,58,0.00,40.00,7,3,11,0.00
2013-7-10,88,79,68,75,63,-100,90,64,46,0.00,40.00,10,5,17,0.00
2013-7-11,83,73,63,62,58,54,90,63,39,0.00,40.00,7,4,14,0.00
2013-7-12,85,73,61,60,56,54,81,57,36,0.00,40.00,6,3,7,0.00
2013-7-13,86,75,62,63,60,54,86,61,43,0.00,40.00,6,4,11,0.00
2013-7-14,91,79,66,69,66,63,93,66,43,0.00,40.00,7,4,11,0.00
2013-7-15,92,81,72,74,71,69,92,74,50,0.00,40.00,6,3,10,0.00
2013-7-16,92,86,74,74,72,69,93,64,49,0.00,40.00,6,4,9,0.00
2013-7-17,95,85,73,75,72,68,93,67,44,0.00,40.00,4,2,6,0.00
2013-7-18,94,86,75,75,73,71,92,67,48,0.00,40.00,7,3,10,0.00
2013-7-19,95,85,75,74,71,68,88,67,44,0.00,40.00,11,5,18,0.00
2013-7-20,90,80,71,74,64,-100,93,63,38,0.00,40.00,8,4,10,0.00
2013-7-21,81,74,67,73,68,65,93,82,61,0.00,40.00,5,3,9,0.00
2013-7-22,88,77,67,73,68,65,94,75,52,0.00,40.00,17,3,22,0.00
2013-7-23,80,71,65,66,62,57,94,75,53,0.00,40.00,9,4,12,0.00
2013-7-24,79,69,58,59,54,50,92,62,39,0.00,40.00,9,4,14,0.00
2013-7-25,84,70,58,60,56,52,87,63,40,0.00,40.00,6,2,9,0.00
2013-7-26,74,67,60,69,62,56,94,85,75,0.00,40.00,8,4,16,0.00
2013-7-27,66,60,55,57,51,44,94,73,47,0.00,40.00,11,5,17,0.00
2013-7-28,72,61,50,53,50,48,92,68,46,0.00,40.00,11,5,16,0.00
2013-7-29,78,66,53,57,53,49,94,65,39,0.00,40.00,4,2,8,0.00
2013-7-30,69,66,62,67,63,56,94,89,69,0.00,40.00,8,4,13,0.00
2013-7-31,77,71,67,68,66,64,94,84,64,0.00,40.00,6,2,9,0.00
2013-8-1,83,72,61,64,61,56,94,72,42,0.00,40.00,8,3,11,0.00
2013-8-2,85,75,67,71,66,62,93,74,54,0.00,40.00,8,4,13,0.00
2013-8-3,82,73,64,66,58,53,93,63,39,0.00,40.00,7,4,10,0.00
2013-8-4,82,72,60,58,55,50,85,58,36,0.00,40.00,6,3,8,0.00
2013-8-5,78,69,61,67,62,56,93,79,63,0.00,40.00,7,4,13,0.00
2013-8-6,89,75,66,72,68,64,94,82,55,0.00,40.00,6,3,9,0.00
2013-8-7,88,78,70,74,70,64,94,78,48,0.00,40.00,7,4,11,0.00
2013-8-8,82,73,64,65,63,62,92,74,54,0.00,40.00,7,4,11,0.00
2013-8-9,83,73,63,68,62,55,90,69,50,0.00,40.00,4,2,6,0.00
2013-8-10,81,72,62,68,58,54,89,64,40,0.00,40.00,9,4,12,0.00
2013-8-11,84,72,58,66,60,56,93,68,45,0.00,40.00,6,2,9,0.00
2013-8-21,88,77,67,68,66,64,92,71,47,0.00,40.00,7,4,11,0.00
2013-8-22,81,74,70,70,68,66,91,80,67,0.00,40.00,8,4,14,0.00
2013-8-23,84,74,64,68,64,61,94,74,47,0.00,40.00,7,4,11,0.00
2013-8-24,89,74,61,67,60,-100,89,66,47,0.00,40.00,6,4,10,0.00
2013-8-25,90,77,65,68,65,63,91,69,43,0.00,40.00,6,4,11,0.00
2013-8-26,92,79,67,73,69,63,88,72,50,0.00,40.00,5,3,9,0.00
2013-8-27,92,79,72,73,71,69,91,79,51,0.00,40.00,8,4,11,0.00
2013-9-18,75,65,62,69,57,54,85,75,69,0.00,40.00,6,4,10,0.00
2013-9-19,92,79,67,69,67,63,94,69,45,0.00,40.00,12,6,18,0.00
2013-9-20,71,66,55,66,58,45,94,77,41,0.00,40.00,9,5,15,0.00
2013-9-21,71,58,50,51,44,-100,92,64,36,0.00,40.00,9,4,15,0.00
2013-9-22,75,60,48,48,45,41,91,63,34,0.00,40.00,5,3,9,0.00
2013-9-23,76,61,46,48,45,43,93,61,33,0.00,40.00,8,4,12,0.00
2013-9-24,76,64,49,53,49,45,91,61,41,0.00,40.00,7,5,11,0.00
2013-9-25,80,66,54,56,52,49,84,62,41,0.00,40.00,8,5,11,0.00
2013-9-26,83,67,54,57,53,48,93,64,37,0.00,40.00,7,4,11,0.00
2013-9-27,84,70,56,56,50,46,75,52,31,0.00,40.00,9,5,14,0.00
2013-10-12,72,62,54,60,47,-100,91,64,31,0.00,40.00,8,5,14,0.00
2013-10-13,69,55,42,40,35,30,82,51,26,0.00,40.00,8,4,11,0.00
2013-10-14,66,53,41,44,38,33,90,59,35,0.00,40.00,10,5,14,0.00
2013-10-15,72,58,46,55,46,39,91,67,51,0.00,40.00,14,6,18,0.00
2013-10-16,53,50,44,43,41,38,84,72,65,0.00,40.00,13,6,16,0.00
2013-10-17,62,51,46,46,40,31,95,72,33,0.00,40.00,9,4,14,0.00
2013-10-18,54,46,38,41,36,32,94,70,44,0.00,40.00,11,6,18,0.00
2013-10-31,63,57,45,62,54,41,95,92,84,0.00,40.00,11,7,19,0.00
2013-11-1,52,46,41,44,41,38,92,84,61,0.00,40.00,11,7,17,0.00
2013-11-2,51,41,37,40,31,-100,92,72,42,0.00,40.00,11,5,16,0.00
2013-11-3,55,43,30,35,31,27,94,65,37,0.00,40.00,10,5,14,0.00
2013-11-4,57,51,46,43,37,32,71,60,50,0.00,40.00,16,10,23,0.00
2013-11-5,54,52,51,52,49,43,94,87,72,0.00,40.00,15,9,22,0.00
2013-11-6,57,46,34,55,41,26,95,83,65,0.00,40.00,14,8,21,0.00
2013-12-22,33,28,17,31,25,13,95,89,82,0.00,40.00,4,2,5,0.00
2013-12-23,18,9,2,13,2,-7,82,73,64,0.00,40.00,5,3,7,0.00
2013-12-24,20,8,-4,11,0,-11,80,68,61,0.00,40.00,11,4,14,0.00
2013-12-25,28,25,20,25,20,11,92,82,68,0.00,40.00,12,8,16,0.00
2013-12-26,37,29,17,30,22,14,89,77,62,0.00,40.00,12,5,17,0.00
2013-12-27,44,34,26,31,28,24,95,79,58,0.00,40.00,8,4,11,0.00
2013-12-28,53,42,34,34,31,29,85,68,48,0.00,40.00,9,6,12,0.00